Ruby Valley, NV (89833)

11:05 AM PDT on August 21, 2014 (GMT -0700)
KNVSPRIN1 | Change Station
CLOSE
Current Station
Personal Weather Station
Location: Spring Creek, NV
Elevation: 5760 ft
Nearby Weather Stations

Elev 5760 ft 40.74 °N, 115.53 °W | Updated 5 minutes ago

Scattered Clouds
Scattered Clouds
74.6 °F
Feels Like 76 °F
N
15.0
Wind Variable Wind from SSW
Gusts 22.0 mph

Today
High -- | Low -- °F
--% Chance of Precip.
Yesterday
High -- | Low -- °F
Precip. -- in
5:58 AM 7:30 PM
Waning Crescent, 13% visible
Pressure 29.89 in
Visibility 10.0 miles
Clouds Scattered Clouds 11000 ft
Heat Index 76 °F
Dew Point 33 °F
Humidity 22%
Rainfall 0.00 in
Snow Depth Not available.
UV 7 out of 12
Pollen 8.40 out of 12
Air Quality Not available.
Flu Activity Not available.
METAR KEKO 211756Z AUTO VRB06KT 10SM SCT110 26/02 A3007 RMK AO2 SLP122 T02560017 10256 20161 50001

More Conditions Fewer Conditions

Pressure 29.89 in
Visibility 10.0 miles
Clouds Scattered Clouds 11000 ft
Heat Index 76 °F
Dew Point 33 °F
Humidity 22%
Rainfall 0.00 in
Snow Depth Not available.
UV 7 out of 12
Pollen 8.40 out of 12
Air Quality Not available.
Flu Activity Not available.
METAR KEKO 211756Z AUTO VRB06KT 10SM SCT110 26/02 A3007 RMK AO2 SLP122 T02560017 10256 20161 50001

More Conditions Fewer Conditions

10-Day Weather Forecast

Almanac

Astronomy

Aug. 21, 2014 Rise Set
Actual Time 5:58 AM PDT 7:30 PM PDT
Civil Twilight 5:29 AM PDT 7:58 PM PDT
Nautical Twilight 4:54 AM PDT 8:33 PM PDT
Astronomical Twilight 4:17 AM PDT 9:10 PM PDT
Moon 2:31 AM PDT 5:02 PM PDT
Length of Visible Light 14h 29m
Length of Day
13h 32m
Tomorrow will be 2m 28s shorter.
Waning Crescent, 13% of the Moon is Illuminated
Today
Waning Crescent
Aug 25
New
Sep 2
First Quarter
Sep 8
Full
Sep 15
Last Quarter

Today's Extremes

State Highs State Lows

Community

WunderPhotos

Upload Photos

1,745,987 photos uploaded!

WunderBlogs® & News

Nearby

Snow Depth

Station Depth Elevation
Dorsey Basin 0 in 8100 ft
Taylor Canyon 1 in 6200 ft
Diamond Peak 1 in 8000 ft
Jacks Peak 2 in 8420 ft
Draw Creek 0 in 7200 ft

Earthquake Activity

City Distance Mag. Time & Date
No recent earthquake activity has been reported nearby.
Minimum magnitude displayed is 2.5.

Coastal Water Temperatures

Place Temperature
No Stations Reporting

Nearby Weather Stations